createdAt,value
2017-11-24T00:00:47.463Z,7.70
2017-11-24T00:03:16.380Z,7.70
2017-11-24T00:05:44.507Z,7.70
2017-11-24T00:08:12.680Z,7.70
2017-11-24T00:10:40.835Z,7.70
2017-11-24T00:13:08.986Z,7.70
2017-11-24T00:15:37.101Z,7.70
2017-11-24T00:18:05.256Z,7.80
2017-11-24T00:20:33.378Z,7.80
2017-11-24T00:23:01.552Z,7.80
2017-11-24T00:25:29.667Z,7.80
2017-11-24T00:27:57.819Z,7.90
2017-11-24T00:30:25.939Z,7.90
2017-11-24T00:32:54.086Z,7.90
2017-11-24T00:35:22.207Z,7.80
2017-11-24T00:37:50.359Z,7.80
2017-11-24T00:40:18.485Z,7.70
2017-11-24T00:42:46.632Z,7.60
2017-11-24T00:45:14.750Z,7.60
2017-11-24T00:47:42.902Z,7.60
2017-11-24T00:50:11.030Z,7.60
2017-11-24T00:52:39.968Z,7.40
2017-11-24T00:55:08.086Z,7.40
2017-11-24T00:57:36.265Z,7.40
2017-11-24T01:00:04.388Z,7.40
2017-11-24T01:02:32.525Z,7.30
2017-11-24T01:05:00.698Z,7.30
2017-11-24T01:07:29.588Z,7.30
2017-11-24T01:09:57.747Z,7.20
2017-11-24T01:12:25.884Z,7.20
2017-11-24T01:14:54.034Z,7.20
2017-11-24T01:17:22.166Z,7.20
2017-11-24T01:19:50.319Z,7.20
2017-11-24T01:22:18.447Z,7.10
2017-11-24T01:24:46.598Z,7.10
2017-11-24T01:27:15.503Z,7.00
2017-11-24T01:29:44.419Z,7.00
2017-11-24T01:32:12.557Z,7.00
2017-11-24T01:34:41.479Z,6.90
2017-11-24T01:37:09.624Z,6.90
2017-11-24T01:39:38.540Z,6.80
2017-11-24T01:42:06.669Z,6.80
2017-11-24T01:44:34.809Z,6.70
2017-11-24T01:47:02.934Z,6.70
2017-11-24T01:49:31.089Z,6.70
2017-11-24T01:51:59.211Z,6.70
2017-11-24T01:54:27.362Z,6.60
2017-11-24T01:56:56.255Z,6.60
2017-11-24T01:59:24.405Z,6.60
2017-11-24T02:01:52.521Z,6.60
2017-11-24T02:04:20.668Z,6.60
2017-11-24T02:06:48.796Z,6.50
2017-11-24T02:09:16.950Z,6.50
2017-11-24T02:11:45.079Z,6.40
2017-11-24T02:14:13.247Z,6.40
2017-11-24T02:16:41.370Z,6.30
2017-11-24T02:19:09.514Z,6.30
2017-11-24T02:21:37.647Z,6.30
2017-11-24T02:24:05.799Z,6.30
2017-11-24T02:26:33.914Z,6.30
2017-11-24T02:29:02.071Z,6.30
2017-11-24T02:31:30.194Z,6.30
2017-11-24T02:33:58.332Z,6.30
2017-11-24T02:36:26.476Z,6.20
2017-11-24T02:38:54.612Z,6.20
2017-11-24T02:41:22.762Z,6.20
2017-11-24T02:43:50.877Z,6.10
2017-11-24T02:46:19.037Z,6.20
2017-11-24T02:48:47.158Z,6.10
2017-11-24T02:51:15.298Z,6.10
2017-11-24T02:53:43.433Z,6.10
2017-11-24T02:56:11.587Z,6.10
2017-11-24T02:58:39.714Z,6.10
2017-11-24T03:01:07.864Z,6.10
2017-11-24T03:03:35.986Z,6.10
2017-11-24T03:06:04.135Z,6.10
2017-11-24T03:08:32.260Z,6.20
2017-11-24T03:11:01.180Z,6.20
2017-11-24T03:13:29.310Z,6.20
2017-11-24T03:15:57.463Z,6.20
2017-11-24T03:18:25.591Z,6.30
2017-11-24T03:20:53.742Z,6.30
2017-11-24T03:23:21.863Z,6.30
2017-11-24T03:25:50.020Z,6.30
2017-11-24T03:28:18.148Z,6.30
2017-11-24T03:30:46.295Z,6.40
2017-11-24T03:33:14.447Z,6.40
2017-11-24T03:35:42.591Z,6.30
2017-11-24T03:38:11.474Z,6.30
2017-11-24T03:40:39.626Z,6.20
2017-11-24T03:43:07.754Z,6.30
2017-11-24T03:45:35.880Z,6.30
2017-11-24T03:48:04.032Z,6.30
2017-11-24T03:50:32.154Z,6.20
2017-11-24T03:53:00.307Z,6.20
2017-11-24T03:55:28.429Z,6.20
2017-11-24T03:57:56.584Z,6.20
2017-11-24T04:00:24.711Z,6.20
2017-11-24T04:02:52.867Z,6.10
2017-11-24T04:05:20.998Z,6.10
2017-11-24T04:07:49.147Z,6.10
2017-11-24T04:10:17.275Z,6.10
2017-11-24T04:12:45.431Z,6.10
2017-11-24T04:15:13.558Z,6.10
2017-11-24T04:17:41.711Z,6.10
2017-11-24T04:20:09.832Z,6.20
2017-11-24T04:22:37.989Z,6.20
2017-11-24T04:25:06.116Z,6.10
2017-11-24T04:27:34.277Z,6.10
2017-11-24T04:30:02.399Z,6.10
2017-11-24T04:32:30.555Z,6.10
2017-11-24T04:34:58.679Z,6.10
2017-11-24T04:37:26.827Z,6.10
2017-11-24T04:39:55.719Z,6.10
2017-11-24T04:42:23.868Z,6.10
2017-11-24T04:44:51.996Z,6.10
2017-11-24T04:47:20.159Z,6.00
2017-11-24T04:49:48.282Z,6.00
2017-11-24T04:52:16.453Z,5.90
2017-11-24T04:54:44.574Z,5.90
2017-11-24T04:57:13.490Z,5.90
2017-11-24T04:59:41.835Z,5.90
2017-11-24T05:02:09.982Z,5.90
2017-11-24T05:04:38.099Z,5.90
2017-11-24T05:07:06.255Z,5.90
2017-11-24T05:09:35.151Z,5.80
2017-11-24T05:12:04.087Z,5.80
2017-11-24T05:14:32.209Z,5.80
2017-11-24T05:17:01.094Z,5.80
2017-11-24T05:19:29.232Z,5.80
2017-11-24T05:21:57.358Z,5.80
2017-11-24T05:24:25.512Z,5.90
2017-11-24T05:26:53.638Z,5.90
2017-11-24T05:29:21.785Z,5.90
2017-11-24T05:31:49.909Z,6.00
2017-11-24T05:34:18.058Z,6.00
2017-11-24T05:36:46.190Z,6.00
2017-11-24T05:39:14.346Z,6.00
2017-11-24T05:41:42.474Z,6.00
2017-11-24T05:44:10.627Z,6.00
2017-11-24T05:46:38.745Z,6.00
2017-11-24T05:49:06.897Z,6.00
2017-11-24T05:51:35.014Z,6.00
2017-11-24T05:54:03.182Z,6.00
2017-11-24T05:56:31.309Z,6.00
2017-11-24T05:58:59.464Z,6.00
2017-11-24T06:01:27.582Z,6.10
2017-11-24T06:03:55.735Z,6.20
2017-11-24T06:06:23.863Z,6.20
2017-11-24T06:08:52.798Z,6.30
2017-11-24T06:11:20.915Z,6.30
2017-11-24T06:13:49.072Z,6.40
2017-11-24T06:16:17.199Z,6.50
2017-11-24T06:18:45.347Z,6.50
2017-11-24T06:21:13.471Z,6.60
2017-11-24T06:23:41.623Z,6.60
2017-11-24T06:26:09.771Z,6.60
2017-11-24T06:28:37.952Z,6.60
2017-11-24T06:31:06.078Z,6.70
2017-11-24T06:33:34.245Z,6.70
2017-11-24T06:36:02.394Z,6.70
2017-11-24T06:38:30.515Z,6.70
2017-11-24T06:40:58.667Z,6.80
2017-11-24T06:43:26.788Z,6.80
2017-11-24T06:45:54.945Z,6.80
2017-11-24T06:48:23.068Z,6.80
2017-11-24T06:50:51.235Z,6.90
2017-11-24T06:53:19.379Z,6.90
2017-11-24T06:55:47.536Z,6.90
2017-11-24T06:58:15.669Z,6.90
2017-11-24T07:00:43.825Z,7.00
2017-11-24T07:03:11.961Z,6.90
2017-11-24T07:05:40.898Z,7.00
2017-11-24T07:08:09.034Z,7.00
2017-11-24T07:10:37.958Z,7.00
2017-11-24T07:13:06.069Z,7.00
2017-11-24T07:15:34.218Z,7.00
2017-11-24T07:18:02.346Z,6.90
2017-11-24T07:20:30.496Z,6.90
2017-11-24T07:22:58.619Z,6.80
2017-11-24T07:25:26.777Z,6.80
2017-11-24T07:27:54.902Z,6.70
2017-11-24T07:30:23.045Z,6.70
2017-11-24T07:32:51.170Z,6.70
2017-11-24T07:35:19.316Z,6.70
2017-11-24T07:37:47.429Z,6.70
2017-11-24T07:40:16.337Z,6.70
2017-11-24T07:42:44.492Z,6.60
2017-11-24T07:45:13.409Z,6.70
2017-11-24T07:47:41.531Z,6.60
2017-11-24T07:50:09.683Z,6.70
2017-11-24T07:52:37.805Z,6.70
2017-11-24T07:55:05.956Z,6.70
2017-11-24T07:57:34.096Z,6.80
2017-11-24T08:00:02.237Z,6.80
2017-11-24T08:02:30.385Z,6.80
2017-11-24T08:04:59.271Z,6.90
2017-11-24T08:07:27.423Z,6.90
2017-11-24T08:09:55.548Z,6.90
2017-11-24T08:12:23.695Z,6.90
2017-11-24T08:14:51.817Z,7.00
2017-11-24T08:17:19.974Z,7.00
2017-11-24T08:19:48.093Z,7.00
2017-11-24T08:22:16.252Z,7.00
2017-11-24T08:24:44.373Z,7.00
2017-11-24T08:27:12.531Z,7.00
2017-11-24T08:29:40.660Z,7.00
2017-11-24T08:32:08.819Z,7.00
2017-11-24T08:34:36.947Z,7.00
2017-11-24T08:37:05.095Z,7.00
2017-11-24T08:39:33.215Z,7.00
2017-11-24T08:42:02.130Z,7.00
2017-11-24T08:44:30.263Z,6.90
2017-11-24T08:47:04.788Z,6.90
2017-11-24T08:49:39.291Z,7.00
2017-11-24T08:52:07.439Z,6.90
2017-11-24T08:54:35.555Z,7.00
2017-11-24T08:57:03.722Z,7.00
2017-11-24T08:59:31.849Z,7.00
2017-11-24T09:02:00.008Z,7.00
2017-11-24T09:04:28.131Z,7.00
2017-11-24T09:06:56.286Z,7.00
2017-11-24T09:09:24.429Z,7.00
2017-11-24T09:11:52.590Z,7.00
2017-11-24T09:14:20.725Z,7.00
2017-11-24T09:16:48.874Z,7.00
2017-11-24T09:19:17.013Z,7.00
2017-11-24T09:21:45.171Z,7.00
2017-11-24T09:24:14.066Z,7.10
2017-11-24T09:26:42.203Z,7.00
2017-11-24T09:29:10.359Z,7.10
2017-11-24T09:31:38.486Z,7.10
2017-11-24T09:34:06.630Z,7.10
2017-11-24T09:36:34.759Z,7.10
2017-11-24T09:39:02.912Z,7.10
2017-11-24T09:41:31.040Z,7.10
2017-11-24T09:43:59.252Z,7.10
2017-11-24T09:46:27.435Z,7.20
2017-11-24T09:48:55.582Z,7.20
2017-11-24T09:51:23.701Z,7.20
2017-11-24T09:53:51.871Z,7.20
2017-11-24T09:56:19.991Z,7.20
2017-11-24T09:58:48.179Z,7.20
2017-11-24T10:01:16.383Z,7.20
2017-11-24T10:03:44.660Z,7.30
2017-11-24T10:06:12.783Z,7.30
2017-11-24T10:08:40.921Z,7.30
2017-11-24T10:11:09.238Z,7.40
2017-11-24T10:13:37.387Z,7.40
2017-11-24T10:16:05.598Z,7.40
2017-11-24T10:18:33.767Z,7.40
2017-11-24T10:21:07.444Z,7.50
2017-11-24T10:23:35.600Z,7.50
2017-11-24T10:26:03.719Z,7.50
2017-11-24T10:28:31.871Z,7.50
2017-11-24T10:30:59.986Z,7.40
2017-11-24T10:33:28.143Z,7.40
2017-11-24T10:35:57.044Z,7.40
2017-11-24T10:38:25.190Z,7.40
2017-11-24T10:40:53.325Z,7.40
2017-11-24T10:43:21.474Z,7.50
2017-11-24T10:45:49.606Z,7.50
2017-11-24T10:48:17.786Z,7.60
2017-11-24T10:50:45.906Z,7.60
2017-11-24T10:53:14.039Z,7.60
2017-11-24T10:55:42.190Z,7.70
2017-11-24T10:58:10.314Z,7.70
2017-11-24T11:00:40.256Z,7.80
2017-11-24T11:03:09.372Z,7.80
2017-11-24T11:05:37.530Z,7.80
2017-11-24T11:08:05.656Z,7.80
2017-11-24T11:10:33.797Z,7.80
2017-11-24T11:13:01.927Z,7.80
2017-11-24T11:15:30.079Z,7.80
2017-11-24T11:17:58.225Z,7.80
2017-11-24T11:20:26.384Z,7.80
2017-11-24T11:22:54.510Z,7.90
2017-11-24T11:25:22.670Z,7.80
2017-11-24T11:27:50.796Z,7.80
2017-11-24T11:30:18.938Z,7.90
2017-11-24T11:32:47.063Z,7.90
2017-11-24T11:35:15.214Z,7.90
2017-11-24T11:37:43.330Z,7.90
2017-11-24T11:40:11.544Z,7.90
2017-11-24T11:42:39.696Z,7.90
2017-11-24T11:45:07.847Z,8.00
2017-11-24T11:47:35.967Z,8.00
2017-11-24T11:50:04.116Z,8.00
2017-11-24T11:52:32.250Z,8.00
2017-11-24T11:55:00.429Z,8.00
2017-11-24T11:57:28.554Z,7.90
2017-11-24T11:59:56.722Z,7.90
2017-11-24T12:02:24.858Z,7.90
2017-11-24T12:04:53.010Z,7.90
2017-11-24T12:07:21.132Z,7.90
2017-11-24T12:09:49.284Z,7.80
2017-11-24T12:12:17.441Z,7.80
2017-11-24T12:14:45.571Z,7.80
2017-11-24T12:17:13.716Z,7.80
2017-11-24T12:19:41.847Z,7.80
2017-11-24T12:22:10.008Z,7.80
2017-11-24T12:24:38.139Z,7.80
2017-11-24T12:27:07.078Z,7.80
2017-11-24T12:29:35.221Z,7.80
2017-11-24T12:32:03.381Z,7.90
2017-11-24T12:34:31.517Z,7.90
2017-11-24T12:36:59.691Z,8.00
2017-11-24T12:39:27.843Z,8.00
2017-11-24T12:41:55.987Z,8.00
2017-11-24T12:44:24.110Z,8.10
2017-11-24T12:46:52.255Z,8.10
2017-11-24T12:49:20.381Z,8.10
2017-11-24T12:51:49.304Z,8.10
2017-11-24T12:54:17.451Z,8.10
2017-11-24T12:56:45.628Z,8.10
2017-11-24T12:59:13.776Z,8.10
2017-11-24T13:01:41.942Z,8.10
2017-11-24T13:04:10.074Z,8.10
2017-11-24T13:06:38.234Z,8.10
2017-11-24T13:09:06.356Z,8.10
2017-11-24T13:11:34.511Z,8.10
2017-11-24T13:14:02.639Z,8.10
2017-11-24T13:16:31.576Z,8.10
2017-11-24T13:18:59.691Z,8.00
2017-11-24T13:21:28.614Z,8.00
2017-11-24T13:23:56.759Z,8.00
2017-11-24T13:26:25.687Z,8.00
2017-11-24T13:28:53.829Z,8.00
2017-11-24T13:31:22.750Z,8.00
2017-11-24T13:33:50.885Z,8.00
2017-11-24T13:36:19.803Z,7.90
2017-11-24T13:38:47.955Z,7.90
2017-11-24T13:41:16.849Z,7.90
2017-11-24T13:43:45.014Z,7.90
2017-11-24T13:46:13.898Z,7.90
2017-11-24T13:48:42.045Z,7.90
2017-11-24T13:51:10.172Z,7.90
2017-11-24T13:53:38.330Z,7.90
2017-11-24T13:56:06.470Z,7.90
2017-11-24T13:58:34.631Z,7.90
2017-11-24T14:01:02.770Z,7.90
2017-11-24T14:03:30.916Z,7.90
2017-11-24T14:05:59.058Z,7.90
2017-11-24T14:08:27.214Z,7.80
2017-11-24T14:10:55.359Z,7.90
2017-11-24T14:13:23.510Z,7.80
2017-11-24T14:15:51.640Z,7.80
2017-11-24T14:18:19.790Z,7.80
2017-11-24T14:20:47.917Z,7.80
2017-11-24T14:23:16.066Z,7.80
2017-11-24T14:25:44.198Z,7.70
2017-11-24T14:28:12.365Z,7.70
2017-11-24T14:30:40.491Z,7.70
2017-11-24T14:33:08.652Z,7.60
2017-11-24T14:35:36.778Z,7.60
2017-11-24T14:38:04.930Z,7.50
2017-11-24T14:40:33.069Z,7.50
2017-11-24T14:43:01.225Z,7.50
2017-11-24T14:45:29.338Z,7.50
2017-11-24T14:47:57.486Z,7.50
2017-11-24T14:50:25.619Z,7.40
2017-11-24T14:52:53.769Z,7.40
2017-11-24T14:55:21.915Z,7.40
2017-11-24T14:57:50.115Z,7.40
2017-11-24T15:00:18.232Z,7.30
2017-11-24T15:02:46.393Z,7.30
2017-11-24T15:05:14.534Z,7.30
2017-11-24T15:07:42.684Z,7.30
2017-11-24T15:10:10.838Z,7.30
2017-11-24T15:12:38.955Z,7.30
2017-11-24T15:15:07.148Z,7.20
2017-11-24T15:17:35.275Z,7.30
2017-11-24T15:20:03.435Z,7.20
2017-11-24T15:22:31.566Z,7.20
2017-11-24T15:25:00.495Z,7.20
2017-11-24T15:27:28.614Z,7.20
2017-11-24T15:29:56.772Z,7.20
2017-11-24T15:32:24.998Z,7.20
2017-11-24T15:34:53.142Z,7.20
2017-11-24T15:37:21.262Z,7.20
2017-11-24T15:39:49.430Z,7.20
2017-11-24T15:42:17.565Z,7.10
2017-11-24T15:44:45.723Z,7.10
2017-11-24T15:47:13.842Z,7.10
2017-11-24T15:49:42.021Z,7.10
2017-11-24T15:52:10.149Z,7.10
2017-11-24T15:54:38.298Z,7.10
2017-11-24T15:57:06.442Z,7.10
2017-11-24T15:59:34.645Z,7.10
2017-11-24T16:02:02.768Z,7.10
2017-11-24T16:04:30.943Z,7.10
2017-11-24T16:06:59.851Z,7.10
2017-11-24T16:09:28.018Z,7.00
2017-11-24T16:11:56.139Z,7.00
2017-11-24T16:14:24.290Z,7.10
2017-11-24T16:16:52.429Z,7.10
2017-11-24T16:19:20.583Z,7.10
2017-11-24T16:21:49.526Z,7.10
2017-11-24T16:24:18.450Z,7.00
2017-11-24T16:26:46.583Z,7.00
2017-11-24T16:29:14.738Z,7.10
2017-11-24T16:31:42.939Z,7.10
2017-11-24T16:34:11.124Z,7.10
2017-11-24T16:36:39.259Z,7.10
2017-11-24T16:39:07.387Z,7.10
2017-11-24T16:41:37.163Z,7.10
2017-11-24T16:44:05.297Z,7.10
2017-11-24T16:46:34.223Z,7.10
2017-11-24T16:49:02.356Z,7.10
2017-11-24T16:51:31.297Z,7.10
2017-11-24T16:53:59.468Z,7.10
2017-11-24T16:56:27.624Z,7.10
2017-11-24T16:58:55.787Z,7.10
2017-11-24T17:01:23.942Z,7.10
2017-11-24T17:03:52.911Z,7.10
2017-11-24T17:06:21.071Z,7.10
2017-11-24T17:08:49.219Z,7.10
2017-11-24T17:11:17.376Z,7.10
2017-11-24T17:13:45.514Z,7.10
2017-11-24T17:16:13.706Z,7.10
2017-11-24T17:18:41.831Z,7.00
2017-11-24T17:21:09.994Z,7.10
2017-11-24T17:23:38.120Z,7.10
2017-11-24T17:26:06.283Z,7.10
2017-11-24T17:28:34.416Z,7.10
2017-11-24T17:31:02.590Z,7.10
2017-11-24T17:33:30.734Z,7.10
2017-11-24T17:35:58.954Z,7.00
2017-11-24T17:38:27.095Z,7.00
2017-11-24T17:40:55.262Z,6.90
2017-11-24T17:43:23.394Z,6.90
2017-11-24T17:45:51.604Z,6.80
2017-11-24T17:48:19.788Z,6.80
2017-11-24T17:50:48.014Z,6.70
2017-11-24T17:53:16.280Z,6.60
2017-11-24T17:55:44.532Z,6.60
2017-11-24T17:58:13.228Z,6.50
2017-11-24T18:00:42.224Z,6.40
2017-11-24T18:03:10.564Z,6.40
2017-11-24T18:05:38.727Z,6.40
2017-11-24T18:08:07.655Z,6.30
2017-11-24T18:10:36.025Z,6.30
2017-11-24T18:13:04.321Z,6.20
2017-11-24T18:15:32.477Z,6.20
2017-11-24T18:18:00.728Z,6.10
2017-11-24T18:20:29.097Z,6.00
2017-11-24T18:22:57.500Z,6.00
2017-11-24T18:25:25.798Z,5.90
2017-11-24T18:27:54.349Z,5.90
2017-11-24T18:30:22.517Z,5.90
2017-11-24T18:32:51.749Z,5.80
2017-11-24T18:35:20.533Z,5.80
2017-11-24T18:37:48.980Z,5.70
2017-11-24T18:40:17.475Z,5.70
2017-11-24T18:42:45.755Z,5.60
2017-11-24T18:45:14.125Z,5.60
2017-11-24T18:47:42.748Z,5.60
2017-11-24T18:50:10.998Z,5.50
2017-11-24T18:52:39.202Z,5.50
2017-11-24T18:55:07.867Z,5.50
2017-11-24T18:57:36.127Z,5.50
2017-11-24T19:00:04.454Z,5.40
2017-11-24T19:02:32.719Z,5.40
2017-11-24T19:05:01.029Z,5.40
2017-11-24T19:07:29.954Z,5.30
2017-11-24T19:09:58.115Z,5.30
2017-11-24T19:12:27.108Z,5.20
2017-11-24T19:14:55.279Z,5.20
2017-11-24T19:17:23.418Z,5.20
2017-11-24T19:19:52.390Z,5.00
2017-11-24T19:22:20.651Z,5.00
2017-11-24T19:24:48.822Z,4.90
2017-11-24T19:27:16.956Z,4.90
2017-11-24T19:29:45.115Z,4.80
2017-11-24T19:32:13.243Z,4.70
2017-11-24T19:34:41.418Z,4.60
2017-11-24T19:37:09.652Z,4.60
2017-11-24T19:39:39.171Z,4.50
2017-11-24T19:42:07.327Z,4.50
2017-11-24T19:44:35.463Z,4.40
2017-11-24T19:47:03.615Z,4.40
2017-11-24T19:49:31.760Z,4.40
2017-11-24T19:51:59.925Z,4.40
2017-11-24T19:54:28.826Z,4.50
2017-11-24T19:56:57.018Z,4.50
2017-11-24T19:59:25.142Z,4.50
2017-11-24T20:01:53.298Z,4.60
2017-11-24T20:04:21.429Z,4.60
2017-11-24T20:06:49.596Z,4.60
2017-11-24T20:09:18.496Z,4.60
2017-11-24T20:11:46.654Z,4.60
2017-11-24T20:14:15.600Z,4.50
2017-11-24T20:16:43.730Z,4.50
2017-11-24T20:19:13.571Z,4.50
2017-11-24T20:21:41.693Z,4.50
2017-11-24T20:24:09.871Z,4.50
2017-11-24T20:26:38.006Z,4.50
2017-11-24T20:29:06.163Z,4.60
2017-11-24T20:31:34.297Z,4.60
2017-11-24T20:34:03.232Z,4.60
2017-11-24T20:36:31.367Z,4.60
2017-11-24T20:39:00.288Z,4.60
2017-11-24T20:41:28.430Z,4.60
2017-11-24T20:43:57.383Z,4.60
2017-11-24T20:46:25.536Z,4.60
2017-11-24T20:48:53.691Z,4.60
2017-11-24T20:51:21.828Z,4.60
2017-11-24T20:53:49.962Z,4.50
2017-11-24T20:56:18.122Z,4.50
2017-11-24T20:58:46.346Z,4.50
2017-11-24T21:01:14.537Z,4.50
2017-11-24T21:03:43.457Z,4.50
2017-11-24T21:06:11.619Z,4.40
2017-11-24T21:08:39.757Z,4.50
2017-11-24T21:11:07.923Z,4.50
2017-11-24T21:13:36.054Z,4.40
2017-11-24T21:16:04.214Z,4.40
2017-11-24T21:18:32.353Z,4.40
2017-11-24T21:21:00.510Z,4.40
2017-11-24T21:23:28.655Z,4.30
2017-11-24T21:25:56.834Z,4.30
2017-11-24T21:28:24.980Z,4.30
2017-11-24T21:30:53.149Z,4.30
2017-11-24T21:33:21.287Z,4.20
2017-11-24T21:35:49.438Z,4.20
2017-11-24T21:38:17.581Z,4.20
2017-11-24T21:40:45.747Z,4.10
2017-11-24T21:43:13.885Z,4.10
2017-11-24T21:45:42.053Z,4.00
2017-11-24T21:48:10.194Z,4.00
2017-11-24T21:50:38.374Z,4.00
2017-11-24T21:53:06.511Z,4.00
2017-11-24T21:55:35.447Z,3.90
2017-11-24T21:58:03.606Z,3.90
2017-11-24T22:00:31.770Z,3.90
2017-11-24T22:02:59.960Z,3.90
2017-11-24T22:05:28.109Z,3.90
2017-11-24T22:07:56.297Z,3.90
2017-11-24T22:10:24.425Z,3.90
2017-11-24T22:12:52.586Z,3.90
2017-11-24T22:15:20.732Z,3.90
2017-11-24T22:17:48.902Z,3.90
2017-11-24T22:20:17.049Z,4.00
2017-11-24T22:22:45.225Z,4.10
2017-11-24T22:25:13.362Z,4.10
2017-11-24T22:27:42.290Z,4.20
2017-11-24T22:30:10.459Z,4.20
2017-11-24T22:32:38.641Z,4.30
2017-11-24T22:35:06.783Z,4.40
2017-11-24T22:37:35.710Z,4.50
2017-11-24T22:40:03.915Z,4.50
2017-11-24T22:42:32.083Z,4.50
2017-11-24T22:45:00.237Z,4.50
2017-11-24T22:47:28.411Z,4.60
2017-11-24T22:49:56.547Z,4.70
2017-11-24T22:52:24.714Z,4.70
2017-11-24T22:54:52.888Z,4.80
2017-11-24T22:57:21.820Z,4.80
2017-11-24T22:59:49.966Z,4.80
2017-11-24T23:02:18.896Z,4.90
2017-11-24T23:04:47.032Z,4.90
2017-11-24T23:07:15.993Z,4.90
2017-11-24T23:09:44.142Z,4.90
2017-11-24T23:12:12.295Z,5.00
2017-11-24T23:14:40.434Z,5.00
2017-11-24T23:17:08.660Z,5.00
2017-11-24T23:19:36.802Z,5.00
2017-11-24T23:22:04.935Z,5.00
2017-11-24T23:24:33.101Z,5.00
2017-11-24T23:27:01.234Z,5.10
2017-11-24T23:29:29.399Z,5.10
2017-11-24T23:31:57.533Z,5.00
2017-11-24T23:34:25.695Z,5.00
2017-11-24T23:36:53.819Z,5.00
2017-11-24T23:39:21.977Z,5.00
2017-11-24T23:41:50.113Z,5.00
2017-11-24T23:44:18.278Z,5.00
2017-11-24T23:46:46.415Z,5.00
2017-11-24T23:49:14.588Z,5.00
2017-11-24T23:51:42.713Z,5.00
2017-11-24T23:54:10.869Z,5.00
2017-11-24T23:56:38.999Z,5.00
2017-11-24T23:59:07.164Z,5.00
